Time;durP1;ratioP1;P1;durP2;ratioP2;P2;SDS_P1;SDS_P2;PMS_P1;PMS_P2;Temp;Humidity;BMP_temperature;BMP_pressure;BME280_temperature;BME280_humidity;BME280_pressure;Samples;Min_cycle;Max_cycle;Signal;HPM_P1;HPM_P2
2021/04/03 00:00:36;;;;;;;24.33;21.58;;;14.90;99.90;;;;;;4968217;28;20034;-74
2021/04/03 00:03:03;;;;;;;27.65;24.73;;;14.80;99.90;;;;;;4965336;28;20019;-75
2021/04/03 00:05:29;;;;;;;28.50;23.88;;;14.80;99.90;;;;;;4970504;28;20026;-75
2021/04/03 00:07:56;;;;;;;25.05;22.15;;;14.80;99.90;;;;;;4970499;28;20034;-75
2021/04/03 00:10:28;;;;;;;25.63;22.88;;;14.90;99.90;;;;;;4970460;28;20129;-74
2021/04/03 00:12:54;;;;;;;24.52;21.92;;;14.90;99.90;;;;;;4969093;28;20029;-74
2021/04/03 00:15:20;;;;;;;27.05;22.38;;;14.90;99.90;;;;;;4970982;28;20517;-75
2021/04/03 00:17:46;;;;;;;24.80;21.23;;;15.00;99.90;;;;;;4970292;28;20046;-75
2021/04/03 00:20:15;;;;;;;26.05;20.35;;;15.00;99.90;;;;;;4975050;28;20098;-74
2021/04/03 00:22:42;;;;;;;21.92;19.55;;;14.90;99.90;;;;;;4972437;28;20109;-74
2021/04/03 00:25:08;;;;;;;19.63;17.67;;;14.90;99.90;;;;;;4960377;28;20049;-75
2021/04/03 00:27:34;;;;;;;25.13;18.92;;;14.90;99.90;;;;;;4973928;28;20023;-74
2021/04/03 00:30:14;;;;;;;21.73;19.00;;;14.90;99.90;;;;;;4957085;28;20026;-74
2021/04/03 00:32:48;;;;;;;24.70;19.05;;;15.00;99.90;;;;;;4958116;28;20061;-74
2021/04/03 00:35:17;;;;;;;33.97;21.88;;;14.90;99.90;;;;;;4973118;28;20044;-75
2021/04/03 00:37:43;;;;;;;31.25;18.38;;;14.90;99.90;;;;;;4974049;28;20038;-75
2021/04/03 00:40:32;;;;;;;21.25;18.27;;;14.70;99.90;;;;;;4973938;28;20102;-75
2021/04/03 00:42:59;;;;;;;19.67;15.38;;;14.50;99.90;;;;;;4973871;28;20026;-74
2021/04/03 00:45:25;;;;;;;17.40;15.55;;;14.30;99.90;;;;;;4970145;28;20608;-74
2021/04/03 00:47:51;;;;;;;19.90;16.15;;;14.20;99.90;;;;;;4973874;28;20039;-74
2021/04/03 00:50:49;;;;;;;15.15;11.13;;;14.20;99.90;;;;;;4968828;28;20026;-73
2021/04/03 00:53:19;;;;;;;19.17;16.17;;;14.10;99.90;;;;;;4957259;28;20049;-75
2021/04/03 00:55:45;;;;;;;17.42;14.40;;;14.20;99.90;;;;;;4973129;28;20046;-75
2021/04/03 00:58:11;;;;;;;16.80;13.18;;;14.20;99.90;;;;;;4975560;28;20030;-75
2021/04/03 01:00:38;;;;;;;17.05;13.70;;;14.30;99.90;;;;;;4973107;28;20023;-74
2021/04/03 01:03:04;;;;;;;14.57;13.15;;;14.40;99.90;;;;;;4971782;28;20027;-75
2021/04/03 01:05:29;;;;;;;15.02;13.00;;;14.40;99.90;;;;;;4973203;28;20505;-75
2021/04/03 01:07:55;;;;;;;19.27;13.23;;;14.40;99.90;;;;;;4967268;28;20019;-75
2021/04/03 01:10:37;;;;;;;18.83;13.88;;;14.50;99.90;;;;;;4973044;28;20492;-74
2021/04/03 01:13:18;;;;;;;15.63;14.02;;;14.50;99.90;;;;;;4973347;28;20058;-74
2021/04/03 01:16:05;;;;;;;14.77;12.55;;;14.50;99.90;;;;;;4969722;28;20507;-74
2021/04/03 01:18:54;;;;;;;14.02;12.55;;;14.60;99.90;;;;;;4956630;28;20393;-75
2021/04/03 01:21:28;;;;;;;16.15;13.05;;;14.60;99.90;;;;;;4972377;28;20039;-75
2021/04/03 01:24:22;;;;;;;17.73;13.63;;;14.50;99.90;;;;;;4958362;28;20027;-76
2021/04/03 01:27:18;;;;;;;14.07;12.75;;;14.50;99.90;;;;;;4970848;28;20484;-75
2021/04/03 01:30:04;;;;;;;16.48;13.80;;;14.50;99.90;;;;;;4973334;28;20133;-74
2021/04/03 01:33:03;;;;;;;19.10;14.23;;;14.50;99.90;;;;;;4969058;28;20035;-75
2021/04/03 01:35:45;;;;;;;15.18;13.63;;;14.50;99.90;;;;;;4972883;28;20033;-75
2021/04/03 01:38:18;;;;;;;15.82;13.15;;;14.50;99.90;;;;;;4973372;28;20051;-75
2021/04/03 01:40:47;;;;;;;14.90;12.75;;;14.50;99.90;;;;;;4973094;28;20069;-74
2021/04/03 01:43:21;;;;;;;16.35;14.40;;;14.50;99.90;;;;;;4967010;28;20019;-75
2021/04/03 01:45:49;;;;;;;16.45;14.27;;;14.50;99.90;;;;;;4972915;28;20064;-75
2021/04/03 01:48:17;;;;;;;17.38;13.20;;;14.50;99.90;;;;;;4972508;28;20023;-76
2021/04/03 01:50:44;;;;;;;14.73;13.15;;;14.50;99.90;;;;;;4972087;28;20033;-75
2021/04/03 01:53:11;;;;;;;15.63;12.60;;;14.40;99.90;;;;;;4978527;28;20042;-76
2021/04/03 01:55:37;;;;;;;19.65;13.77;;;14.40;99.90;;;;;;4972094;28;20034;-75
2021/04/03 01:58:04;;;;;;;15.05;12.40;;;14.50;99.90;;;;;;4973157;28;20043;-74
2021/04/03 02:00:32;;;;;;;17.88;12.10;;;14.50;99.90;;;;;;4975422;28;20026;-74
2021/04/03 02:02:58;;;;;;;16.50;11.38;;;14.50;99.90;;;;;;4971818;28;20070;-76
2021/04/03 02:05:25;;;;;;;15.27;11.93;;;14.50;99.90;;;;;;4972917;28;20023;-74
2021/04/03 02:07:53;;;;;;;18.33;12.90;;;14.50;99.90;;;;;;4973355;28;20023;-76
2021/04/03 02:10:23;;;;;;;21.45;12.95;;;14.50;99.90;;;;;;4957413;28;20031;-76
2021/04/03 02:12:49;;;;;;;14.25;12.88;;;14.50;99.90;;;;;;4972885;28;20023;-75
2021/04/03 02:15:15;;;;;;;14.35;12.43;;;14.50;99.90;;;;;;4955930;28;20461;-75
2021/04/03 02:17:47;;;;;;;17.88;13.95;;;14.40;99.90;;;;;;4965446;28;20050;-75
2021/04/03 02:20:14;;;;;;;;;;;14.30;99.90;;;;;;4970798;28;20057;-75
2021/04/03 02:22:42;;;;;;;17.23;14.45;;;14.30;99.90;;;;;;4971880;28;19929;-75
2021/04/03 02:25:10;;;;;;;18.52;13.13;;;14.20;99.90;;;;;;4972084;28;20070;-75
2021/04/03 02:27:36;;;;;;;20.00;15.60;;;14.10;99.90;;;;;;4971507;28;20034;-74
2021/04/03 02:30:15;;;;;;;27.27;14.52;;;13.90;99.90;;;;;;4974760;28;20183;-74
2021/04/03 02:33:01;;;;;;;24.20;18.15;;;13.70;99.90;;;;;;4971152;28;20038;-74
2021/04/03 02:35:29;;;;;;;27.25;18.05;;;13.50;99.90;;;;;;4970919;28;20043;-75
2021/04/03 02:38:00;;;;;;;17.67;14.05;;;13.40;99.90;;;;;;4971759;28;20031;-75
2021/04/03 02:40:29;;;;;;;18.10;14.95;;;13.30;99.90;;;;;;4972436;28;20600;-74
2021/04/03 02:43:01;;;;;;;20.40;17.55;;;13.20;99.90;;;;;;4971219;28;20035;-75
2021/04/03 02:45:27;;;;;;;19.35;15.27;;;13.10;99.90;;;;;;4969770;28;21937;-75
2021/04/03 02:48:00;;;;;;;19.02;16.27;;;13.10;99.90;;;;;;4972684;28;20037;-74
2021/04/03 02:50:33;;;;;;;19.45;16.15;;;13.00;99.90;;;;;;4972952;28;20503;-75
2021/04/03 02:53:01;;;;;;;19.45;15.10;;;13.10;99.90;;;;;;4973390;28;20114;-74
2021/04/03 02:55:30;;;;;;;12.98;10.68;;;13.00;99.90;;;;;;4969610;28;20029;-75
2021/04/03 02:57:57;;;;;;;14.93;13.13;;;13.00;99.90;;;;;;4972326;28;20029;-75
2021/04/03 03:00:25;;;;;;;13.38;11.40;;;12.90;99.90;;;;;;4970846;28;20019;-75
2021/04/03 03:02:53;;;;;;;12.10;10.32;;;13.00;99.90;;;;;;4971899;28;20022;-75
2021/04/03 03:05:20;;;;;;;9.65;8.23;;;12.90;99.90;;;;;;4970814;28;20031;-74
2021/04/03 03:07:50;;;;;;;8.90;7.10;;;12.90;99.90;;;;;;4971345;28;20489;-75
2021/04/03 03:10:17;;;;;;;8.57;5.50;;;13.00;99.90;;;;;;4971069;28;20026;-77
2021/04/03 03:12:45;;;;;;;10.07;6.70;;;13.00;99.90;;;;;;4970876;28;20524;-75
2021/04/03 03:15:14;;;;;;;7.35;6.43;;;13.10;99.90;;;;;;4971073;28;20030;-76
2021/04/03 03:17:45;;;;;;;6.43;3.83;;;13.10;99.90;;;;;;4968289;28;20050;-76
2021/04/03 03:20:15;;;;;;;6.22;5.65;;;13.10;99.90;;;;;;4950593;28;20023;-76
2021/04/03 03:22:42;;;;;;;7.50;4.53;;;13.00;99.90;;;;;;4969285;28;20493;-76
2021/04/03 03:25:09;;;;;;;4.80;3.92;;;13.00;99.90;;;;;;4971384;28;20031;-76
2021/04/03 03:27:37;;;;;;;4.60;4.18;;;13.00;99.90;;;;;;4959480;28;20755;-75
2021/04/03 03:30:05;;;;;;;3.72;3.35;;;13.00;99.90;;;;;;4970088;28;20488;-76
2021/04/03 03:32:31;;;;;;;4.32;3.70;;;12.90;99.90;;;;;;4970574;28;20046;-76
2021/04/03 03:34:57;;;;;;;6.10;3.65;;;12.90;99.90;;;;;;4970179;28;20034;-76
2021/04/03 03:37:25;;;;;;;11.90;5.03;;;12.80;99.90;;;;;;4971557;28;20050;-76
2021/04/03 03:39:52;;;;;;;4.60;4.20;;;12.80;99.90;;;;;;4970869;28;20122;-76
2021/04/03 03:42:18;;;;;;;2.53;2.30;;;12.90;99.90;;;;;;4970655;28;20118;-76
2021/04/03 03:44:45;;;;;;;2.33;2.13;;;12.90;99.90;;;;;;4970972;28;20129;-75
2021/04/03 03:47:11;;;;;;;2.60;1.77;;;12.90;99.90;;;;;;4969551;28;20115;-76
2021/04/03 03:49:37;;;;;;;6.25;1.80;;;12.90;99.90;;;;;;4970762;28;20113;-75
2021/04/03 03:52:04;;;;;;;5.40;2.00;;;12.90;99.90;;;;;;4971006;28;20030;-74
2021/04/03 03:54:29;;;;;;;2.88;1.45;;;13.00;99.90;;;;;;4971988;28;20050;-75
2021/04/03 03:56:55;;;;;;;3.95;2.22;;;13.00;99.90;;;;;;4971546;28;20504;-76
2021/04/03 03:59:21;;;;;;;3.72;2.75;;;12.90;99.90;;;;;;4962179;28;20026;-76
2021/04/03 04:01:47;;;;;;;4.70;2.22;;;12.90;99.90;;;;;;4971096;28;20046;-77
2021/04/03 04:04:12;;;;;;;2.22;1.88;;;12.90;99.90;;;;;;4974599;28;20014;-77
2021/04/03 04:06:38;;;;;;;2.65;2.38;;;12.90;99.90;;;;;;4975744;28;20520;-76
2021/04/03 04:09:04;;;;;;;2.05;1.75;;;12.80;99.90;;;;;;4972833;28;20388;-76
2021/04/03 04:11:30;;;;;;;5.90;2.72;;;12.80;99.90;;;;;;4973234;28;20039;-76
2021/04/03 04:13:56;;;;;;;1.30;1.05;;;12.80;99.90;;;;;;4974453;28;20031;-76
2021/04/03 04:16:22;;;;;;;7.43;1.67;;;12.80;99.90;;;;;;4972705;28;20316;-76
2021/04/03 04:18:47;;;;;;;1.58;1.17;;;12.70;99.90;;;;;;4974632;28;20031;-75
2021/04/03 04:21:13;;;;;;;2.28;1.40;;;12.70;99.90;;;;;;4974640;28;20034;-75
2021/04/03 04:23:39;;;;;;;1.75;1.20;;;12.50;99.90;;;;;;4963166;28;20030;-75
2021/04/03 04:26:05;;;;;;;1.95;1.02;;;12.30;99.90;;;;;;4990078;28;20057;-77
2021/04/03 04:28:32;;;;;;;0.82;0.68;;;12.20;99.90;;;;;;4961361;28;20078;-75
2021/04/03 04:30:57;;;;;;;3.25;1.10;;;12.00;99.90;;;;;;4974365;28;20034;-76
2021/04/03 04:33:23;;;;;;;4.63;1.23;;;11.90;99.90;;;;;;4974125;28;20023;-74
2021/04/03 04:35:49;;;;;;;2.10;0.68;;;11.80;99.90;;;;;;4974928;28;20030;-75
2021/04/03 04:38:15;;;;;;;2.53;0.77;;;11.60;99.90;;;;;;4976908;28;20378;-76
2021/04/03 04:40:40;;;;;;;3.72;0.65;;;11.30;99.90;;;;;;4974639;28;20035;-76
2021/04/03 04:43:06;;;;;;;0.60;0.60;;;11.20;99.90;;;;;;4973921;28;20061;-76
2021/04/03 04:45:32;;;;;;;0.75;0.60;;;11.10;99.90;;;;;;4974696;28;20050;-76
2021/04/03 04:47:57;;;;;;;1.75;0.43;;;11.00;99.90;;;;;;4974873;28;20146;-76
2021/04/03 04:50:23;;;;;;;0.82;0.52;;;10.90;99.90;;;;;;4973101;28;20023;-75
2021/04/03 04:52:49;;;;;;;3.05;0.60;;;10.80;99.90;;;;;;4978710;28;20033;-74
2021/04/03 04:55:15;;;;;;;0.35;0.35;;;10.80;99.90;;;;;;4976888;28;20042;-75
2021/04/03 04:57:41;;;;;;;0.40;0.40;;;10.70;99.90;;;;;;4975634;28;20038;-76
2021/04/03 05:00:07;;;;;;;0.40;0.40;;;10.70;99.90;;;;;;4978541;28;20022;-76
2021/04/03 05:02:33;;;;;;;0.50;0.50;;;10.80;99.90;;;;;;4973433;28;20077;-76
2021/04/03 05:04:59;;;;;;;0.65;0.65;;;10.80;99.90;;;;;;4975610;28;20491;-75
2021/04/03 05:07:24;;;;;;;0.80;0.60;;;10.80;99.90;;;;;;4973123;28;20018;-76
2021/04/03 05:09:50;;;;;;;0.50;0.50;;;10.90;99.90;;;;;;4976071;28;20105;-76
2021/04/03 05:12:16;;;;;;;1.10;0.65;;;11.00;99.90;;;;;;4973830;28;20105;-76
2021/04/03 05:14:42;;;;;;;0.68;0.30;;;11.10;99.90;;;;;;4973890;28;20054;-76
2021/04/03 05:17:07;;;;;;;0.40;0.40;;;11.10;99.90;;;;;;4977740;28;20027;-75
2021/04/03 05:19:33;;;;;;;0.30;0.30;;;11.20;99.90;;;;;;4957697;28;20023;-76
2021/04/03 05:21:59;;;;;;;0.40;0.40;;;11.20;99.90;;;;;;4973816;28;20132;-77
2021/04/03 05:24:24;;;;;;;0.98;0.70;;;11.20;99.90;;;;;;4973127;28;20023;-76
2021/04/03 05:26:50;;;;;;;0.43;0.40;;;11.20;99.90;;;;;;4973771;28;20038;-76
2021/04/03 05:29:16;;;;;;;0.32;0.30;;;11.20;99.90;;;;;;4977847;28;20027;-76
2021/04/03 05:31:42;;;;;;;0.30;0.30;;;11.20;99.90;;;;;;4978040;28;20437;-76
2021/04/03 05:34:08;;;;;;;1.42;0.40;;;11.20;99.90;;;;;;4979123;28;20015;-76
2021/04/03 05:36:33;;;;;;;0.43;0.43;;;11.20;99.90;;;;;;4975272;28;20023;-76
2021/04/03 05:38:59;;;;;;;0.30;0.30;;;11.30;99.90;;;;;;4972686;28;20031;-76
2021/04/03 05:41:25;;;;;;;0.85;0.60;;;11.30;99.90;;;;;;4973557;28;20027;-77
2021/04/03 05:43:53;;;;;;;0.65;0.63;;;11.40;99.90;;;;;;4971144;28;20062;-74
2021/04/03 05:46:20;;;;;;;0.50;0.40;;;11.50;99.90;;;;;;4973378;28;20031;-75
2021/04/03 05:48:46;;;;;;;0.50;0.30;;;11.50;99.90;;;;;;4972759;28;20439;-75
2021/04/03 05:51:16;;;;;;;0.30;0.30;;;11.60;99.90;;;;;;4970830;28;20027;-75
2021/04/03 05:53:42;;;;;;;2.15;0.80;;;11.70;99.90;;;;;;4973020;28;20035;-76
2021/04/03 05:56:09;;;;;;;0.60;0.60;;;11.70;99.90;;;;;;4973314;28;20037;-74
2021/04/03 05:58:36;;;;;;;2.55;0.85;;;11.80;99.90;;;;;;4973168;28;20027;-75
2021/04/03 06:01:05;;;;;;;2.00;1.05;;;11.90;99.90;;;;;;4970999;28;20026;-76
2021/04/03 06:03:31;;;;;;;2.70;1.88;;;11.90;99.90;;;;;;4961796;28;20585;-75
2021/04/03 06:05:58;;;;;;;3.15;2.38;;;11.90;99.90;;;;;;4955766;28;20037;-76
2021/04/03 06:08:32;;;;;;;5.40;2.90;;;12.00;99.90;;;;;;4952409;28;20031;-76
2021/04/03 06:11:17;;;;;;;2.40;1.90;;;12.10;99.90;;;;;;4974965;28;20177;-76
2021/04/03 06:14:02;;;;;;;4.93;3.30;;;12.20;99.90;;;;;;4962132;28;20027;-76
2021/04/03 06:16:40;;;;;;;4.57;3.17;;;12.20;99.90;;;;;;4983612;28;20014;-75
2021/04/03 06:19:07;;;;;;;5.95;3.72;;;12.30;99.90;;;;;;4959312;28;20031;-75
2021/04/03 06:21:33;;;;;;;7.13;3.72;;;12.30;99.90;;;;;;4986734;28;20046;-75
2021/04/03 06:23:59;;;;;;;4.68;3.85;;;12.40;99.90;;;;;;4982566;28;20086;-75
2021/04/03 06:26:25;;;;;;;3.83;3.40;;;12.40;99.90;;;;;;4972338;28;20028;-76
2021/04/03 06:28:51;;;;;;;5.53;4.38;;;12.40;99.90;;;;;;4977463;28;20066;-76
2021/04/03 06:31:17;;;;;;;4.97;4.43;;;12.40;99.90;;;;;;4966466;28;20170;-76
2021/04/03 06:33:44;;;;;;;8.98;5.95;;;12.40;99.90;;;;;;4970170;28;20026;-77
2021/04/03 06:36:12;;;;;;;6.72;5.70;;;12.50;99.90;;;;;;4968659;28;20097;-76
2021/04/03 06:38:40;;;;;;;10.65;7.03;;;12.50;99.90;;;;;;4970828;28;20031;-69
2021/04/03 06:41:24;;;;;;;11.50;6.43;;;12.50;99.90;;;;;;4972456;28;20504;-69
2021/04/03 06:44:05;;;;;;;7.28;5.25;;;12.50;99.90;;;;;;4958033;28;20085;-69
2021/04/03 06:46:32;;;;;;;7.65;6.15;;;12.50;99.90;;;;;;4965756;28;20078;-69
2021/04/03 06:48:59;;;;;;;7.32;5.00;;;12.50;99.90;;;;;;4968977;28;20114;-66
2021/04/03 06:51:26;;;;;;;7.82;4.25;;;12.50;99.90;;;;;;4965735;28;20034;-75
2021/04/03 06:53:53;;;;;;;12.32;5.57;;;12.60;99.90;;;;;;4973355;28;20046;-73
2021/04/03 06:56:25;;;;;;;6.03;4.80;;;12.60;99.90;;;;;;4971413;28;20058;-72
2021/04/03 06:59:02;;;;;;;6.82;4.80;;;12.60;99.90;;;;;;4971256;28;20061;-72
2021/04/03 07:01:55;;;;;;;6.00;5.25;;;12.70;99.90;;;;;;4970202;28;20027;-72
2021/04/03 07:04:22;;;;;;;8.30;5.00;;;12.80;99.90;;;;;;4970219;28;20074;-69
2021/04/03 07:06:50;;;;;;;5.63;4.43;;;12.90;99.90;;;;;;4971161;28;20031;-68
2021/04/03 07:09:17;;;;;;;5.18;4.15;;;13.00;99.90;;;;;;4971444;28;20132;-67
2021/04/03 07:11:45;;;;;;;9.18;6.00;;;13.00;99.90;;;;;;4968867;28;20038;-69
2021/04/03 07:14:11;;;;;;;3.58;3.33;;;13.00;99.90;;;;;;4969810;28;20517;-67
2021/04/03 07:16:40;;;;;;;6.10;4.30;;;13.00;99.90;;;;;;4968676;28;20038;-69
2021/04/03 07:19:09;;;;;;;5.28;4.70;;;13.00;99.90;;;;;;4971156;28;20027;-68
2021/04/03 07:21:35;;;;;;;9.45;2.63;;;13.00;99.90;;;;;;4962190;28;20054;-68
2021/04/03 07:24:02;;;;;;;4.45;3.15;;;13.10;99.90;;;;;;4971973;28;20065;-67
2021/04/03 07:26:29;;;;;;;4.15;3.75;;;13.00;99.90;;;;;;4978237;28;20485;-66
2021/04/03 07:28:54;;;;;;;7.00;4.40;;;13.20;99.90;;;;;;4971033;28;20030;-68
2021/04/03 07:31:36;;;;;;;4.10;3.75;;;13.30;99.90;;;;;;4972029;28;20054;-67
2021/04/03 07:34:02;;;;;;;6.70;4.45;;;13.40;99.90;;;;;;4970214;28;20097;-68
2021/04/03 07:36:41;;;;;;;5.50;4.45;;;13.40;99.90;;;;;;4976068;28;20038;-68
2021/04/03 07:39:37;;;;;;;12.10;5.50;;;13.40;99.90;;;;;;4968578;28;20030;-67
2021/04/03 07:42:04;;;;;;;4.15;3.40;;;13.60;99.90;;;;;;4955568;28;20035;-68
2021/04/03 07:44:37;;;;;;;6.18;4.43;;;13.60;99.90;;;;;;4974591;28;20056;-68
2021/04/03 07:47:20;;;;;;;13.30;3.58;;;13.60;99.90;;;;;;4970250;28;20536;-67
2021/04/03 07:49:46;;;;;;;5.47;3.63;;;13.70;99.90;;;;;;4971292;28;20098;-66
2021/04/03 07:52:12;;;;;;;5.22;3.95;;;13.70;99.90;;;;;;4967445;28;20038;-68
2021/04/03 07:54:38;;;;;;;2.97;2.78;;;13.80;99.90;;;;;;4974372;28;20048;-69
2021/04/03 07:57:07;;;;;;;9.88;4.13;;;13.60;99.90;;;;;;4971339;28;20019;-68
2021/04/03 07:59:48;;;;;;;5.15;3.40;;;13.50;99.90;;;;;;4970577;28;20102;-67
2021/04/03 08:02:19;;;;;;;7.50;3.67;;;13.50;99.90;;;;;;4966166;28;20026;-67
2021/04/03 08:04:45;;;;;;;8.97;3.63;;;13.60;99.90;;;;;;4970455;28;20578;-68
2021/04/03 08:07:11;;;;;;;3.63;3.30;;;13.60;99.90;;;;;;4971866;28;20041;-68
2021/04/03 08:09:38;;;;;;;6.75;3.63;;;13.60;99.90;;;;;;4970754;28;20508;-66
2021/04/03 08:12:05;;;;;;;3.33;3.03;;;13.60;99.90;;;;;;4969182;28;20046;-69
2021/04/03 08:14:32;;;;;;;3.08;2.78;;;13.70;99.90;;;;;;4971531;28;20813;-71
2021/04/03 08:16:59;;;;;;;4.28;3.25;;;13.70;99.90;;;;;;4961655;28;20035;-69
2021/04/03 08:19:26;;;;;;;4.32;3.28;;;13.70;99.90;;;;;;4969374;28;20094;-73
2021/04/03 08:21:52;;;;;;;3.53;3.22;;;13.70;99.90;;;;;;4969217;28;20027;-70
2021/04/03 08:24:20;;;;;;;3.92;3.08;;;13.80;99.90;;;;;;4970051;28;20035;-71
2021/04/03 08:26:47;;;;;;;3.45;3.15;;;13.70;99.90;;;;;;4970076;28;20117;-67
2021/04/03 08:29:26;;;;;;;3.63;3.33;;;13.70;99.90;;;;;;4957364;28;20050;-69
2021/04/03 08:31:53;;;;;;;22.08;5.60;;;13.70;99.90;;;;;;4962543;28;20484;-71
2021/04/03 08:34:20;;;;;;;4.57;4.13;;;13.80;99.90;;;;;;4969555;28;20035;-71
2021/04/03 08:36:46;;;;;;;5.70;4.70;;;13.80;99.90;;;;;;4970047;28;20085;-71
2021/04/03 08:39:14;;;;;;;3.60;3.30;;;13.90;99.90;;;;;;4968583;28;20086;-71
2021/04/03 08:41:43;;;;;;;4.82;4.25;;;14.00;99.90;;;;;;4973956;28;20026;-71
2021/04/03 08:44:22;;;;;;;5.22;3.53;;;14.20;99.90;;;;;;4971832;28;20068;-67
2021/04/03 08:46:53;;;;;;;6.15;4.10;;;14.20;99.90;;;;;;4972716;28;20056;-70
2021/04/03 08:49:24;;;;;;;4.33;3.57;;;14.10;99.90;;;;;;4974368;28;20050;-68
2021/04/03 08:51:51;;;;;;;6.55;5.20;;;14.10;99.90;;;;;;4981383;28;20030;-69
2021/04/03 08:54:17;;;;;;;10.85;5.32;;;14.20;99.90;;;;;;4985033;28;20023;-70
2021/04/03 08:56:43;;;;;;;6.10;4.95;;;14.10;99.90;;;;;;4982838;28;20492;-69
2021/04/03 08:59:22;;;;;;;5.97;4.97;;;14.30;99.90;;;;;;4975454;28;20038;-71
2021/04/03 09:01:52;;;;;;;4.85;4.45;;;14.30;99.90;;;;;;4973631;28;20027;-71
2021/04/03 09:04:20;;;;;;;4.40;3.97;;;14.30;99.90;;;;;;4970685;28;20099;-68
2021/04/03 09:06:55;;;;;;;7.32;4.57;;;14.40;99.90;;;;;;4973813;28;20099;-70
2021/04/03 09:09:28;;;;;;;7.15;4.57;;;14.40;99.90;;;;;;4972914;28;20058;-69
2021/04/03 09:12:00;;;;;;;5.55;4.95;;;14.60;99.90;;;;;;4971221;28;20090;-70
2021/04/03 09:14:40;;;;;;;4.78;3.88;;;14.80;99.90;;;;;;4969829;28;20097;-70
2021/04/03 09:17:18;;;;;;;5.78;4.22;;;14.80;99.90;;;;;;4968458;28;20032;-71
2021/04/03 09:19:44;;;;;;;5.97;4.43;;;14.80;99.90;;;;;;4970383;28;20082;-69
2021/04/03 09:22:16;;;;;;;6.78;5.47;;;14.70;99.90;;;;;;4972847;28;20381;-70
2021/04/03 09:24:56;;;;;;;7.25;6.20;;;14.80;99.90;;;;;;4971694;28;20031;-70
2021/04/03 09:27:22;;;;;;;6.22;4.85;;;14.90;99.90;;;;;;4972284;28;20031;-70
2021/04/03 09:29:50;;;;;;;5.55;5.03;;;15.10;99.90;;;;;;4957796;28;20379;-68
2021/04/03 09:32:17;;;;;;;5.82;4.82;;;15.10;99.90;;;;;;4973157;28;20283;-67
2021/04/03 09:34:43;;;;;;;8.65;5.05;;;15.10;99.90;;;;;;4970551;28;20033;-69
2021/04/03 09:37:18;;;;;;;4.88;4.28;;;15.20;99.90;;;;;;4972877;28;20027;-69
2021/04/03 09:39:49;;;;;;;5.93;5.40;;;15.10;99.90;;;;;;4972035;28;20023;-69
2021/04/03 09:42:17;;;;;;;5.90;4.55;;;15.20;99.90;;;;;;4971254;28;20357;-70
2021/04/03 09:44:44;;;;;;;5.55;4.95;;;15.10;99.90;;;;;;4971417;28;20041;-69
2021/04/03 09:47:11;;;;;;;8.40;5.97;;;15.10;99.90;;;;;;4971739;28;20109;-71
2021/04/03 09:49:41;;;;;;;5.38;4.55;;;15.00;99.90;;;;;;4971906;28;20453;-69
2021/04/03 09:52:08;;;;;;;4.60;4.20;;;15.10;99.90;;;;;;4972254;28;20034;-69
2021/04/03 09:54:34;;;;;;;4.93;4.32;;;14.90;99.90;;;;;;4955134;28;20027;-70
2021/04/03 09:57:01;;;;;;;6.20;4.38;;;15.00;99.90;;;;;;4973228;28;20030;-70
2021/04/03 09:59:27;;;;;;;4.55;3.75;;;15.10;99.90;;;;;;4971083;28;20031;-71
2021/04/03 10:01:56;;;;;;;4.60;4.07;;;15.00;99.90;;;;;;4972924;28;20031;-69
2021/04/03 10:04:22;;;;;;;6.78;4.20;;;14.80;99.90;;;;;;4972158;28;20081;-70
2021/04/03 10:06:48;;;;;;;4.32;3.85;;;14.90;99.90;;;;;;4973927;28;20042;-72
2021/04/03 10:09:14;;;;;;;3.88;3.58;;;14.90;99.90;;;;;;4972407;28;20393;-69
2021/04/03 10:11:42;;;;;;;6.22;5.07;;;15.10;99.90;;;;;;4957768;28;20058;-69
2021/04/03 10:14:08;;;;;;;4.38;4.00;;;14.90;99.90;;;;;;4973524;28;20061;-72
2021/04/03 10:16:34;;;;;;;5.05;3.40;;;14.80;99.90;;;;;;4973651;28;20058;-70
2021/04/03 10:19:00;;;;;;;4.38;3.85;;;15.10;99.90;;;;;;4974268;28;20023;-70
2021/04/03 10:21:26;;;;;;;5.35;4.85;;;15.10;99.90;;;;;;4971610;28;20401;-70
2021/04/03 10:23:52;;;;;;;5.53;4.25;;;15.00;99.90;;;;;;4972856;28;20062;-68
2021/04/03 10:26:19;;;;;;;6.88;3.58;;;15.10;99.90;;;;;;4971180;28;20049;-70
2021/04/03 10:28:45;;;;;;;4.40;4.00;;;15.30;99.90;;;;;;4971815;28;20082;-72
2021/04/03 10:31:11;;;;;;;4.38;3.97;;;15.30;99.90;;;;;;4972172;28;20061;-71
2021/04/03 10:33:38;;;;;;;4.45;4.05;;;15.50;99.90;;;;;;4971210;28;20030;-70
2021/04/03 10:36:06;;;;;;;4.40;4.00;;;15.40;99.90;;;;;;4971981;28;20058;-70
2021/04/03 10:38:32;;;;;;;5.50;3.58;;;15.40;99.90;;;;;;4974771;28;20486;-73
2021/04/03 10:40:58;;;;;;;5.60;4.68;;;15.50;99.90;;;;;;4974083;28;20027;-68
2021/04/03 10:43:24;;;;;;;4.82;4.43;;;15.50;99.90;;;;;;4963783;28;20023;-70
2021/04/03 10:45:50;;;;;;;5.50;4.82;;;15.50;99.90;;;;;;4970525;28;20029;-69
2021/04/03 10:48:16;;;;;;;6.30;4.63;;;15.50;99.90;;;;;;4971676;28;20405;-68
2021/04/03 10:50:42;;;;;;;6.38;4.85;;;15.40;99.90;;;;;;4971924;28;20030;-69
2021/04/03 10:53:08;;;;;;;5.30;4.72;;;15.40;99.90;;;;;;4971645;28;20058;-69
2021/04/03 10:55:34;;;;;;;8.25;4.90;;;15.40;99.90;;;;;;4974297;28;20019;-72
2021/04/03 10:58:00;;;;;;;4.75;4.35;;;15.40;99.90;;;;;;4971266;28;20497;-70
2021/04/03 11:00:26;;;;;;;6.57;4.57;;;15.30;99.90;;;;;;4976106;28;20104;-70
2021/04/03 11:02:52;;;;;;;6.70;4.78;;;15.50;99.90;;;;;;4967981;28;20734;-70
2021/04/03 11:05:18;;;;;;;5.00;4.43;;;15.50;99.90;;;;;;4973088;28;20030;-71
2021/04/03 11:07:44;;;;;;;5.28;3.88;;;15.60;99.90;;;;;;4970877;28;20023;-73
2021/04/03 11:10:12;;;;;;;10.30;4.55;;;15.50;99.90;;;;;;4969853;28;20041;-72
2021/04/03 11:12:38;;;;;;;4.22;3.90;;;15.40;99.90;;;;;;4960414;28;20456;-72
2021/04/03 11:15:04;;;;;;;5.13;4.63;;;15.60;99.90;;;;;;4969727;28;20059;-71
2021/04/03 11:17:30;;;;;;;5.38;4.43;;;15.40;99.90;;;;;;4973045;28;20077;-74
2021/04/03 11:19:55;;;;;;;6.40;4.97;;;15.60;99.90;;;;;;4978786;28;20022;-72
2021/04/03 11:22:22;;;;;;;6.95;4.55;;;15.80;99.90;;;;;;4987759;28;20392;-72
2021/04/03 11:24:48;;;;;;;4.68;4.28;;;15.50;99.90;;;;;;4972505;28;20114;-73
2021/04/03 11:27:14;;;;;;;4.88;4.15;;;15.80;99.90;;;;;;4982392;28;20141;-73
2021/04/03 11:29:39;;;;;;;7.45;5.72;;;15.90;99.90;;;;;;4960129;28;20031;-71
2021/04/03 11:32:05;;;;;;;6.55;4.05;;;15.70;99.90;;;;;;4971702;28;20082;-72
2021/04/03 11:34:31;;;;;;;5.97;4.32;;;15.80;99.90;;;;;;4967776;28;20046;-73
2021/04/03 11:36:57;;;;;;;8.32;4.80;;;15.90;99.90;;;;;;4979997;28;20035;-71
2021/04/03 11:39:23;;;;;;;5.35;4.78;;;15.90;99.90;;;;;;4973593;28;20469;-73
2021/04/03 11:41:48;;;;;;;4.32;3.92;;;15.90;99.90;;;;;;4966867;28;20036;-73
2021/04/03 11:44:14;;;;;;;5.28;4.78;;;15.80;99.90;;;;;;4973659;28;20065;-72
2021/04/03 11:46:40;;;;;;;4.70;3.25;;;15.90;99.90;;;;;;4968246;28;20114;-73
2021/04/03 11:49:06;;;;;;;5.03;4.53;;;16.10;99.90;;;;;;4971007;28;20690;-71
2021/04/03 11:51:32;;;;;;;5.65;3.83;;;16.10;99.90;;;;;;4970486;28;20062;-73
2021/04/03 11:53:58;;;;;;;5.28;4.57;;;16.30;99.90;;;;;;4971350;28;20030;-72
2021/04/03 11:56:24;;;;;;;7.90;5.35;;;16.40;99.90;;;;;;4954055;28;20065;-74
2021/04/03 11:58:49;;;;;;;7.38;3.67;;;16.40;99.90;;;;;;4971369;28;20097;-73
2021/04/03 12:01:15;;;;;;;5.63;4.28;;;16.50;99.90;;;;;;4970784;28;20038;-73
2021/04/03 12:03:41;;;;;;;4.97;3.65;;;16.50;99.90;;;;;;4972134;28;20067;-73
2021/04/03 12:06:07;;;;;;;9.38;3.67;;;16.30;99.90;;;;;;4971206;28;20023;-72
2021/04/03 12:08:33;;;;;;;4.20;3.83;;;16.20;99.90;;;;;;4971637;28;20026;-71
2021/04/03 12:10:59;;;;;;;7.13;3.75;;;16.00;99.90;;;;;;4971077;28;20411;-72
2021/04/03 12:13:26;;;;;;;4.40;3.58;;;16.20;99.90;;;;;;4971622;28;20425;-72
2021/04/03 12:15:53;;;;;;;3.97;3.67;;;16.20;99.90;;;;;;4974028;28;20030;-71
2021/04/03 12:18:19;;;;;;;5.00;4.50;;;16.10;99.90;;;;;;4974764;28;20029;-73
2021/04/03 12:20:45;;;;;;;4.57;4.18;;;16.20;99.90;;;;;;4974863;28;20094;-73
2021/04/03 12:23:11;;;;;;;6.82;6.13;;;16.10;99.90;;;;;;4975446;28;20034;-73
2021/04/03 12:25:37;;;;;;;4.82;4.32;;;16.10;99.90;;;;;;4976545;28;20106;-74
2021/04/03 12:28:03;;;;;;;5.15;4.50;;;16.20;99.90;;;;;;4977281;28;20047;-71
2021/04/03 12:30:29;;;;;;;4.45;3.17;;;16.30;99.90;;;;;;4977638;28;20057;-72
2021/04/03 12:32:56;;;;;;;3.72;3.47;;;16.40;99.90;;;;;;4975305;28;20023;-73
2021/04/03 12:35:22;;;;;;;4.63;4.22;;;16.60;99.90;;;;;;4975281;28;20035;-72
2021/04/03 12:37:49;;;;;;;3.60;2.90;;;16.60;99.90;;;;;;4974108;28;20061;-71
2021/04/03 12:40:15;;;;;;;4.40;4.00;;;16.60;99.90;;;;;;4976629;28;20038;-73
2021/04/03 12:42:41;;;;;;;5.57;4.65;;;16.60;99.90;;;;;;4974574;28;20030;-71
2021/04/03 12:45:09;;;;;;;7.28;3.78;;;16.40;99.90;;;;;;4975805;28;20023;-73
2021/04/03 12:47:36;;;;;;;5.57;4.32;;;15.90;99.90;;;;;;4974532;28;20038;-71
2021/04/03 12:50:04;;;;;;;5.60;2.90;;;15.90;99.90;;;;;;4980139;28;20102;-73